Time;durP1;ratioP1;P1;durP2;ratioP2;P2;SDS_P1;SDS_P2;PMS_P1;PMS_P2;Temp;Humidity;BMP_temperature;BMP_pressure;BME280_temperature;BME280_humidity;BME280_pressure;Samples;Min_cycle;Max_cycle;Signal;HPM_P1;HPM_P2
2024/01/05 00:01:27;;;;;;;11.70;11.10;;;;;;;;;;5034025;28;20493;-60
2024/01/05 00:03:53;;;;;;;11.10;10.60;;;;;;;;;;5037667;28;20025;-61
2024/01/05 00:06:19;;;;;;;10.90;10.40;;;;;;;;;;5037195;28;20032;-61
2024/01/05 00:08:44;;;;;;;11.40;10.90;;;;;;;;;;5031492;28;20026;-60
2024/01/05 00:11:15;;;;;;;10.98;10.48;;;;;;;;;;5032568;28;20016;-62
2024/01/05 00:13:41;;;;;;;10.90;10.40;;;;;;;;;;5038267;28;20026;-60
2024/01/05 00:16:06;;;;;;;11.27;10.77;;;;;;;;;;5034452;28;20026;-59
2024/01/05 00:18:31;;;;;;;11.00;10.50;;;;;;;;;;5028608;28;20018;-61
2024/01/05 00:20:57;;;;;;;11.00;10.50;;;;;;;;;;5031125;28;20420;-61
2024/01/05 00:23:22;;;;;;;10.90;10.40;;;;;;;;;;5031508;28;20018;-61
2024/01/05 00:25:49;;;;;;;11.18;10.68;;;;;;;;;;5042510;28;20037;-60
2024/01/05 00:28:14;;;;;;;11.00;10.50;;;;;;;;;;5024386;28;20465;-60
2024/01/05 00:30:40;;;;;;;11.63;11.02;;;;;;;;;;5028912;28;20025;-61
2024/01/05 00:33:05;;;;;;;11.20;10.70;;;;;;;;;;5029734;28;20033;-61
2024/01/05 00:35:31;;;;;;;11.05;10.55;;;;;;;;;;5033567;28;20030;-60
2024/01/05 00:37:56;;;;;;;10.73;10.23;;;;;;;;;;5027583;28;20018;-60
2024/01/05 00:40:21;;;;;;;11.50;10.93;;;;;;;;;;5033099;28;20429;-61
2024/01/05 00:42:47;;;;;;;10.90;10.40;;;;;;;;;;5027579;28;20076;-60
2024/01/05 00:45:12;;;;;;;11.00;10.50;;;;;;;;;;5030896;28;20082;-60
2024/01/05 00:47:37;;;;;;;11.75;11.15;;;;;;;;;;5028233;28;20125;-59
2024/01/05 00:50:03;;;;;;;11.93;11.32;;;;;;;;;;5019757;28;20025;-60
2024/01/05 00:52:28;;;;;;;11.10;10.60;;;;;;;;;;5024931;28;20021;-61
2024/01/05 00:54:54;;;;;;;11.50;10.90;;;;;;;;;;5030556;28;20029;-61
2024/01/05 00:57:19;;;;;;;11.60;11.00;;;;;;;;;;5022940;28;20488;-61
2024/01/05 00:59:45;;;;;;;10.77;10.27;;;;;;;;;;5025368;28;20366;-60
2024/01/05 01:02:10;;;;;;;11.18;10.68;;;;;;;;;;5030924;28;20025;-61
2024/01/05 01:04:36;;;;;;;11.15;10.65;;;;;;;;;;5026630;28;20381;-60
2024/01/05 01:07:01;;;;;;;11.07;10.57;;;;;;;;;;5027965;28;20096;-60
2024/01/05 01:09:28;;;;;;;11.00;10.50;;;;;;;;;;5030560;28;20013;-61
2024/01/05 01:11:53;;;;;;;10.85;10.35;;;;;;;;;;5031095;28;20029;-61
2024/01/05 01:14:18;;;;;;;11.15;10.65;;;;;;;;;;5029504;28;20121;-60
2024/01/05 01:16:44;;;;;;;11.48;10.95;;;;;;;;;;5030429;28;20431;-61
2024/01/05 01:19:09;;;;;;;11.10;10.60;;;;;;;;;;5030601;28;20112;-61
2024/01/05 01:21:34;;;;;;;11.20;10.70;;;;;;;;;;5026537;28;20061;-60
2024/01/05 01:24:00;;;;;;;11.57;10.98;;;;;;;;;;5029770;28;20059;-60
2024/01/05 01:26:25;;;;;;;11.30;10.80;;;;;;;;;;5030407;28;20033;-61
2024/01/05 01:28:50;;;;;;;11.23;10.73;;;;;;;;;;5030282;28;20025;-60
2024/01/05 01:31:16;;;;;;;11.23;10.73;;;;;;;;;;5029619;28;20481;-60
2024/01/05 01:33:41;;;;;;;11.20;10.70;;;;;;;;;;5030449;28;20021;-62
2024/01/05 01:36:07;;;;;;;11.15;10.65;;;;;;;;;;5025871;28;20025;-61
2024/01/05 01:38:32;;;;;;;11.20;10.70;;;;;;;;;;5031589;28;20028;-61
2024/01/05 01:40:58;;;;;;;11.00;10.50;;;;;;;;;;5039602;28;20358;-62
2024/01/05 01:43:24;;;;;;;10.73;10.23;;;;;;;;;;5033323;28;20030;-61
2024/01/05 01:45:51;;;;;;;11.25;10.73;;;;;;;;;;5038901;28;20060;-59
2024/01/05 01:48:17;;;;;;;11.20;10.70;;;;;;;;;;5022399;28;20021;-62
2024/01/05 01:50:42;;;;;;;11.10;10.60;;;;;;;;;;5027587;28;20048;-60
2024/01/05 01:53:08;;;;;;;11.23;10.73;;;;;;;;;;5028155;28;20489;-62
2024/01/05 01:55:33;;;;;;;11.75;11.15;;;;;;;;;;5026629;28;20017;-61
2024/01/05 01:57:59;;;;;;;11.13;10.63;;;;;;;;;;5023148;28;20034;-60
2024/01/05 02:00:24;;;;;;;11.13;10.63;;;;;;;;;;5030161;28;20168;-60
2024/01/05 02:02:51;;;;;;;10.88;10.38;;;;;;;;;;5031383;28;20029;-60
2024/01/05 02:05:17;;;;;;;10.40;9.90;;;;;;;;;;5029104;28;20103;-60
2024/01/05 02:07:42;;;;;;;11.13;10.63;;;;;;;;;;5041790;28;20049;-60
2024/01/05 02:10:07;;;;;;;10.77;10.27;;;;;;;;;;5033485;28;20031;-62
2024/01/05 02:12:33;;;;;;;11.60;11.00;;;;;;;;;;5038464;28;20075;-60
2024/01/05 02:14:58;;;;;;;11.00;10.50;;;;;;;;;;5037303;28;20447;-61
2024/01/05 02:17:27;;;;;;;11.50;10.90;;;;;;;;;;5033164;28;20057;-60
2024/01/05 02:19:53;;;;;;;12.05;11.45;;;;;;;;;;5034320;28;20477;-59
2024/01/05 02:22:20;;;;;;;11.35;10.82;;;;;;;;;;5030209;28;20018;-62
2024/01/05 02:24:46;;;;;;;11.48;10.88;;;;;;;;;;5035881;28;20104;-60
2024/01/05 02:27:11;;;;;;;10.80;10.30;;;;;;;;;;5033632;28;20120;-60
2024/01/05 02:29:36;;;;;;;11.05;10.55;;;;;;;;;;5032592;28;20083;-62
2024/01/05 02:32:02;;;;;;;11.15;10.65;;;;;;;;;;5035308;28;20020;-61
2024/01/05 02:34:27;;;;;;;10.43;9.93;;;;;;;;;;5036639;28;20018;-59
2024/01/05 02:36:52;;;;;;;10.70;10.20;;;;;;;;;;5031444;28;20024;-60
2024/01/05 02:39:18;;;;;;;11.02;10.52;;;;;;;;;;5039276;28;20013;-60
2024/01/05 02:41:43;;;;;;;11.13;10.63;;;;;;;;;;5037222;28;20031;-60
2024/01/05 02:44:08;;;;;;;10.90;10.40;;;;;;;;;;5028373;28;20104;-60
2024/01/05 02:46:35;;;;;;;10.90;10.40;;;;;;;;;;5034411;28;20026;-60
2024/01/05 02:49:00;;;;;;;11.50;10.90;;;;;;;;;;5025761;28;20469;-61
2024/01/05 02:51:25;;;;;;;11.48;10.88;;;;;;;;;;5033911;28;20032;-60
2024/01/05 02:53:52;;;;;;;10.50;10.00;;;;;;;;;;5031466;28;20097;-61
2024/01/05 02:56:21;;;;;;;10.60;10.10;;;;;;;;;;5033989;28;20037;-61
2024/01/05 02:58:46;;;;;;;11.10;10.60;;;;;;;;;;5021438;28;20437;-61
2024/01/05 03:01:16;;;;;;;10.93;10.43;;;;;;;;;;5033013;28;20108;-60
2024/01/05 03:03:41;;;;;;;11.13;10.60;;;;;;;;;;5032611;28;20021;-60
2024/01/05 03:06:06;;;;;;;10.73;10.23;;;;;;;;;;5024822;28;20049;-61
2024/01/05 03:08:31;;;;;;;10.68;10.18;;;;;;;;;;5029450;28;20032;-61
2024/01/05 03:10:57;;;;;;;10.77;10.27;;;;;;;;;;5032581;28;20025;-62
2024/01/05 03:13:22;;;;;;;10.50;10.00;;;;;;;;;;5041190;28;20042;-60
2024/01/05 03:15:48;;;;;;;10.88;10.38;;;;;;;;;;5037551;28;20612;-60
2024/01/05 03:18:13;;;;;;;11.30;10.70;;;;;;;;;;5033520;28;20682;-61
2024/01/05 03:20:40;;;;;;;11.35;10.75;;;;;;;;;;5033110;28;20037;-60
2024/01/05 03:23:06;;;;;;;10.98;10.48;;;;;;;;;;5032923;28;20489;-61
2024/01/05 03:25:32;;;;;;;10.73;10.23;;;;;;;;;;5040789;28;20032;-61
2024/01/05 03:27:57;;;;;;;10.80;10.30;;;;;;;;;;5034329;28;20032;-60
2024/01/05 03:30:23;;;;;;;11.15;10.65;;;;;;;;;;5035856;28;20100;-60
2024/01/05 03:32:48;;;;;;;10.48;9.98;;;;;;;;;;5032965;28;20025;-60
2024/01/05 03:35:13;;;;;;;10.70;10.20;;;;;;;;;;5032562;28;20021;-60
2024/01/05 03:37:39;;;;;;;10.88;10.38;;;;;;;;;;5034521;28;20025;-60
2024/01/05 03:40:05;;;;;;;11.18;10.65;;;;;;;;;;5025064;28;20030;-62
2024/01/05 03:42:30;;;;;;;10.98;10.48;;;;;;;;;;5030496;28;20097;-60
2024/01/05 03:44:55;;;;;;;11.00;10.50;;;;;;;;;;5031498;28;20079;-59
2024/01/05 03:47:20;;;;;;;10.75;10.25;;;;;;;;;;5032205;28;20096;-60
2024/01/05 03:49:46;;;;;;;10.80;10.30;;;;;;;;;;5032076;28;20026;-62
2024/01/05 03:52:11;;;;;;;10.82;10.32;;;;;;;;;;5031694;28;20029;-62
2024/01/05 03:54:37;;;;;;;10.82;10.32;;;;;;;;;;5031909;28;20020;-60
2024/01/05 03:57:02;;;;;;;11.10;10.60;;;;;;;;;;5033284;28;20025;-62
2024/01/05 03:59:27;;;;;;;10.73;10.23;;;;;;;;;;5036226;28;20021;-62
2024/01/05 04:01:53;;;;;;;10.80;10.30;;;;;;;;;;5033419;28;20025;-62
2024/01/05 04:04:18;;;;;;;10.57;10.07;;;;;;;;;;5027045;28;20026;-60
2024/01/05 04:06:44;;;;;;;13.90;13.10;;;;;;;;;;5026470;28;20033;-62
2024/01/05 04:09:09;;;;;;;11.80;11.20;;;;;;;;;;5030095;28;20025;-61
2024/01/05 04:11:36;;;;;;;10.95;10.45;;;;;;;;;;5030605;28;20021;-61
2024/01/05 04:14:01;;;;;;;11.52;10.93;;;;;;;;;;5032262;28;20401;-62
2024/01/05 04:16:26;;;;;;;11.73;11.13;;;;;;;;;;5030869;28;20046;-61
2024/01/05 04:18:52;;;;;;;11.48;10.88;;;;;;;;;;5031032;28;20106;-60
2024/01/05 04:21:17;;;;;;;11.13;10.63;;;;;;;;;;5037031;28;20427;-62
2024/01/05 04:23:42;;;;;;;10.70;10.20;;;;;;;;;;5036167;28;20026;-62
2024/01/05 04:26:08;;;;;;;10.93;10.43;;;;;;;;;;5035148;28;20504;-60
2024/01/05 04:28:33;;;;;;;10.65;10.15;;;;;;;;;;5031054;28;20010;-61
2024/01/05 04:30:59;;;;;;;11.95;11.35;;;;;;;;;;5025989;28;20128;-61
2024/01/05 04:33:24;;;;;;;10.75;10.25;;;;;;;;;;5029879;28;20381;-61
2024/01/05 04:35:49;;;;;;;11.13;10.63;;;;;;;;;;5027586;28;20022;-60
2024/01/05 04:38:15;;;;;;;11.80;11.20;;;;;;;;;;5029705;28;20048;-60
2024/01/05 04:40:40;;;;;;;11.65;11.05;;;;;;;;;;5030109;28;20026;-61
2024/01/05 04:43:05;;;;;;;11.40;10.80;;;;;;;;;;5028442;28;20022;-62
2024/01/05 04:45:31;;;;;;;10.77;10.27;;;;;;;;;;5029970;28;20025;-60
2024/01/05 04:47:56;;;;;;;11.50;10.90;;;;;;;;;;5022975;28;20029;-60
2024/01/05 04:50:21;;;;;;;10.77;10.27;;;;;;;;;;5031288;28;20024;-61
2024/01/05 04:52:47;;;;;;;10.88;10.38;;;;;;;;;;5019438;28;20026;-61
2024/01/05 04:55:14;;;;;;;10.82;10.32;;;;;;;;;;5029376;28;20489;-61
2024/01/05 04:57:40;;;;;;;11.25;10.70;;;;;;;;;;5022688;28;20025;-61
2024/01/05 05:00:06;;;;;;;11.25;10.73;;;;;;;;;;5030639;28;20105;-62
2024/01/05 05:02:31;;;;;;;11.57;10.98;;;;;;;;;;5030531;28;20020;-61
2024/01/05 05:04:57;;;;;;;11.50;10.90;;;;;;;;;;5030396;28;20025;-61
2024/01/05 05:07:22;;;;;;;11.07;10.57;;;;;;;;;;5032015;28;20484;-60
2024/01/05 05:09:49;;;;;;;10.88;10.38;;;;;;;;;;5042589;28;20017;-60
2024/01/05 05:12:14;;;;;;;10.88;10.38;;;;;;;;;;5028099;28;20090;-61
2024/01/05 05:14:39;;;;;;;11.00;10.50;;;;;;;;;;5037804;28;20469;-60
2024/01/05 05:17:05;;;;;;;10.93;10.43;;;;;;;;;;5043557;28;20072;-60
2024/01/05 05:19:30;;;;;;;10.80;10.30;;;;;;;;;;5037586;28;20018;-60
2024/01/05 05:21:55;;;;;;;10.70;10.20;;;;;;;;;;5036983;28;20389;-60
2024/01/05 05:24:21;;;;;;;10.90;10.40;;;;;;;;;;5031830;28;20024;-60
2024/01/05 05:26:46;;;;;;;11.15;10.65;;;;;;;;;;5031175;28;20052;-62
2024/01/05 05:29:11;;;;;;;12.00;11.40;;;;;;;;;;5023673;28;20021;-62
2024/01/05 05:31:37;;;;;;;10.88;10.38;;;;;;;;;;5037205;28;20079;-60
2024/01/05 05:34:02;;;;;;;12.18;11.57;;;;;;;;;;5044686;28;20082;-59
2024/01/05 05:36:27;;;;;;;11.38;10.82;;;;;;;;;;5036483;28;20543;-60
2024/01/05 05:38:53;;;;;;;11.10;10.60;;;;;;;;;;5035528;28;20033;-62
2024/01/05 05:41:18;;;;;;;11.82;11.23;;;;;;;;;;5037707;28;20096;-61
2024/01/05 05:43:45;;;;;;;11.15;10.65;;;;;;;;;;5039609;28;20101;-62
2024/01/05 05:46:11;;;;;;;11.00;10.50;;;;;;;;;;5038050;28;20024;-61
2024/01/05 05:48:36;;;;;;;11.50;10.90;;;;;;;;;;5043208;28;20013;-60
2024/01/05 05:51:01;;;;;;;10.80;10.30;;;;;;;;;;5037189;28;20049;-61
2024/01/05 05:53:27;;;;;;;11.60;11.00;;;;;;;;;;5030865;28;20029;-61
2024/01/05 05:55:52;;;;;;;10.95;10.45;;;;;;;;;;5034932;28;20029;-59
2024/01/05 05:58:17;;;;;;;11.65;11.05;;;;;;;;;;5029230;28;20013;-61
2024/01/05 06:00:43;;;;;;;11.60;11.00;;;;;;;;;;5022852;28;20072;-62
2024/01/05 06:03:09;;;;;;;11.80;11.20;;;;;;;;;;5038065;28;20025;-62
2024/01/05 06:05:35;;;;;;;11.90;11.30;;;;;;;;;;5037154;28;20017;-61
2024/01/05 06:08:00;;;;;;;10.82;10.32;;;;;;;;;;5036180;28;20021;-61
2024/01/05 06:10:25;;;;;;;11.60;11.00;;;;;;;;;;5033367;28;20033;-61
2024/01/05 06:12:51;;;;;;;11.38;10.85;;;;;;;;;;5033955;28;20918;-62
2024/01/05 06:15:16;;;;;;;11.32;10.75;;;;;;;;;;5031861;28;20375;-62
2024/01/05 06:17:41;;;;;;;10.65;10.15;;;;;;;;;;5021453;28;20069;-62
2024/01/05 06:20:08;;;;;;;10.85;10.35;;;;;;;;;;5043795;28;20544;-62
2024/01/05 06:22:33;;;;;;;11.52;10.93;;;;;;;;;;5035238;28;20115;-62
2024/01/05 06:24:59;;;;;;;10.98;10.48;;;;;;;;;;5040176;28;20056;-62
2024/01/05 06:27:24;;;;;;;10.82;10.32;;;;;;;;;;5029525;28;20469;-62
2024/01/05 06:29:49;;;;;;;10.55;10.05;;;;;;;;;;5032852;28;20022;-60
2024/01/05 06:32:15;;;;;;;11.45;10.85;;;;;;;;;;5032229;28;20022;-59
2024/01/05 06:34:40;;;;;;;11.18;10.68;;;;;;;;;;5028475;28;20469;-59
2024/01/05 06:37:05;;;;;;;10.55;10.05;;;;;;;;;;5041493;28;20542;-61
2024/01/05 06:39:31;;;;;;;11.52;10.93;;;;;;;;;;5034731;28;20072;-59
2024/01/05 06:41:56;;;;;;;10.77;10.27;;;;;;;;;;5033184;28;20388;-58
2024/01/05 06:44:22;;;;;;;10.80;10.30;;;;;;;;;;5033215;28;20017;-59
2024/01/05 06:46:50;;;;;;;12.63;12.02;;;;;;;;;;5029360;28;20017;-59
2024/01/05 06:49:15;;;;;;;10.80;10.30;;;;;;;;;;5032226;28;20017;-60
2024/01/05 06:51:41;;;;;;;11.30;10.80;;;;;;;;;;5032806;28;20036;-60
2024/01/05 06:54:06;;;;;;;11.95;11.35;;;;;;;;;;5019752;28;20025;-60
2024/01/05 06:56:32;;;;;;;12.15;11.55;;;;;;;;;;5031812;28;20033;-59
2024/01/05 06:59:02;;;;;;;12.30;11.73;;;;;;;;;;5026299;28;20117;-60
2024/01/05 07:01:28;;;;;;;12.27;11.70;;;;;;;;;;5036975;28;20508;-59
2024/01/05 07:03:54;;;;;;;12.43;11.82;;;;;;;;;;5038179;28;20025;-60
2024/01/05 07:06:19;;;;;;;12.38;11.82;;;;;;;;;;5032509;28;20502;-60
2024/01/05 07:08:44;;;;;;;12.65;12.05;;;;;;;;;;5028300;28;20075;-60
2024/01/05 07:11:18;;;;;;;12.90;12.30;;;;;;;;;;5028095;28;20030;-59
2024/01/05 07:13:43;;;;;;;13.15;12.55;;;;;;;;;;5027335;28;20030;-60
2024/01/05 07:16:14;;;;;;;13.10;12.50;;;;;;;;;;5023381;28;20180;-60
2024/01/05 07:18:40;;;;;;;13.10;12.50;;;;;;;;;;5026192;28;20026;-59
2024/01/05 07:21:06;;;;;;;12.63;12.02;;;;;;;;;;5029586;28;20025;-61
2024/01/05 07:23:31;;;;;;;13.70;13.10;;;;;;;;;;5030223;28;20017;-59
2024/01/05 07:25:59;;;;;;;13.88;13.27;;;;;;;;;;5027694;28;20029;-60
2024/01/05 07:28:24;;;;;;;13.30;12.70;;;;;;;;;;5029313;28;20030;-61
2024/01/05 07:30:50;;;;;;;13.70;13.10;;;;;;;;;;5028882;28;20389;-61
2024/01/05 07:33:16;;;;;;;13.65;13.05;;;;;;;;;;5026312;28;20044;-60
2024/01/05 07:35:41;;;;;;;13.48;12.88;;;;;;;;;;5027226;28;20513;-60
2024/01/05 07:38:06;;;;;;;13.60;13.00;;;;;;;;;;5030511;28;20143;-60
2024/01/05 07:40:31;;;;;;;13.43;12.82;;;;;;;;;;5030178;28;20067;-62
2024/01/05 07:42:57;;;;;;;13.40;12.80;;;;;;;;;;5037165;28;20100;-61
2024/01/05 07:45:22;;;;;;;13.43;12.82;;;;;;;;;;5039615;28;20032;-60
2024/01/05 07:47:48;;;;;;;13.23;12.63;;;;;;;;;;5031819;28;20030;-61
2024/01/05 07:50:14;;;;;;;13.98;13.38;;;;;;;;;;5036998;28;20048;-62
2024/01/05 07:52:39;;;;;;;13.88;13.27;;;;;;;;;;5027515;28;20112;-60
2024/01/05 07:55:05;;;;;;;13.77;13.18;;;;;;;;;;5023508;28;20061;-61
2024/01/05 07:57:30;;;;;;;13.57;12.98;;;;;;;;;;5026051;28;20060;-62
2024/01/05 07:59:55;;;;;;;13.65;13.05;;;;;;;;;;5022441;28;20057;-61
2024/01/05 08:02:21;;;;;;;13.50;12.90;;;;;;;;;;5023219;28;20030;-61
2024/01/05 08:04:46;;;;;;;13.60;13.00;;;;;;;;;;5023617;28;20060;-61
2024/01/05 08:07:13;;;;;;;13.77;13.18;;;;;;;;;;5027080;28;20030;-61
2024/01/05 08:09:40;;;;;;;13.95;13.35;;;;;;;;;;5024726;28;20033;-61
2024/01/05 08:12:05;;;;;;;13.88;13.27;;;;;;;;;;5019761;28;20053;-63
2024/01/05 08:14:31;;;;;;;12.95;12.35;;;;;;;;;;5021705;28;20469;-63
2024/01/05 08:16:56;;;;;;;14.68;13.98;;;;;;;;;;5023339;28;20055;-63
2024/01/05 08:19:21;;;;;;;13.65;13.05;;;;;;;;;;5027853;28;20448;-64
2024/01/05 08:21:47;;;;;;;13.90;13.30;;;;;;;;;;5028419;28;20053;-64
2024/01/05 08:24:12;;;;;;;13.80;13.20;;;;;;;;;;5028412;28;20641;-65
2024/01/05 08:26:37;;;;;;;13.68;13.07;;;;;;;;;;5027953;28;20019;-64
2024/01/05 08:29:03;;;;;;;13.45;12.85;;;;;;;;;;5016987;28;20100;-65
2024/01/05 08:31:28;;;;;;;13.25;12.65;;;;;;;;;;5026925;28;20104;-66
2024/01/05 08:33:53;;;;;;;13.52;12.93;;;;;;;;;;5031039;28;20029;-64
2024/01/05 08:36:19;;;;;;;13.15;12.55;;;;;;;;;;5030974;28;20029;-63
2024/01/05 08:38:44;;;;;;;13.45;12.85;;;;;;;;;;5032856;28;20579;-63
2024/01/05 08:41:10;;;;;;;13.60;13.00;;;;;;;;;;5032194;28;20071;-61
2024/01/05 08:43:35;;;;;;;13.75;13.15;;;;;;;;;;5030867;28;20116;-61
2024/01/05 08:46:01;;;;;;;13.63;13.02;;;;;;;;;;5022173;28;20076;-62
2024/01/05 08:48:27;;;;;;;13.50;12.90;;;;;;;;;;5036300;28;20104;-65
2024/01/05 08:50:52;;;;;;;13.32;12.73;;;;;;;;;;5037099;28;20124;-64
2024/01/05 08:53:19;;;;;;;13.40;12.80;;;;;;;;;;5025459;28;20029;-63
2024/01/05 08:55:45;;;;;;;13.95;13.35;;;;;;;;;;5027372;28;20018;-64
2024/01/05 08:58:10;;;;;;;13.80;13.20;;;;;;;;;;5027137;28;20547;-65
2024/01/05 09:00:36;;;;;;;13.35;12.75;;;;;;;;;;5025357;28;20112;-66
2024/01/05 09:03:01;;;;;;;13.07;12.48;;;;;;;;;;5029140;28;20029;-64
2024/01/05 09:05:26;;;;;;;13.63;13.02;;;;;;;;;;5017398;28;20029;-65
2024/01/05 09:07:53;;;;;;;13.25;12.65;;;;;;;;;;5025965;28;20037;-66
2024/01/05 09:10:18;;;;;;;13.43;12.82;;;;;;;;;;5016219;28;20473;-67
2024/01/05 09:12:43;;;;;;;13.32;12.73;;;;;;;;;;5026128;28;20040;-65
2024/01/05 09:15:09;;;;;;;13.10;12.50;;;;;;;;;;5026038;28;20025;-64
2024/01/05 09:17:34;;;;;;;13.32;12.73;;;;;;;;;;5033467;28;20053;-65
2024/01/05 09:20:00;;;;;;;13.55;12.95;;;;;;;;;;5029205;28;20032;-64
2024/01/05 09:22:25;;;;;;;13.02;12.43;;;;;;;;;;5035746;28;20067;-66
2024/01/05 09:24:51;;;;;;;13.20;12.60;;;;;;;;;;5043489;28;20025;-64
2024/01/05 09:27:17;;;;;;;13.40;12.80;;;;;;;;;;5034338;28;20618;-66
2024/01/05 09:29:43;;;;;;;13.35;12.75;;;;;;;;;;5026475;28;20100;-63
2024/01/05 09:32:08;;;;;;;13.20;12.60;;;;;;;;;;5025022;28;20438;-64
2024/01/05 09:34:33;;;;;;;13.75;13.15;;;;;;;;;;5033585;28;20033;-64
2024/01/05 09:36:59;;;;;;;13.18;12.57;;;;;;;;;;5030091;28;20025;-64
2024/01/05 09:39:24;;;;;;;13.38;12.77;;;;;;;;;;5029908;28;20029;-64
2024/01/05 09:41:50;;;;;;;13.57;12.98;;;;;;;;;;5039843;28;20020;-63
2024/01/05 09:44:16;;;;;;;13.40;12.80;;;;;;;;;;5032523;28;20021;-64
2024/01/05 09:46:42;;;;;;;13.55;12.95;;;;;;;;;;5033877;28;20017;-63
2024/01/05 09:49:08;;;;;;;14.10;13.40;;;;;;;;;;5034106;28;20033;-63
2024/01/05 09:51:34;;;;;;;13.50;12.90;;;;;;;;;;5035703;28;20036;-65
2024/01/05 09:54:00;;;;;;;13.98;13.27;;;;;;;;;;5030511;28;20033;-65
2024/01/05 09:56:25;;;;;;;13.48;12.88;;;;;;;;;;5031481;28;20048;-64
2024/01/05 09:58:51;;;;;;;12.88;12.27;;;;;;;;;;5028132;28;20037;-64
2024/01/05 10:01:30;;;;;;;13.23;12.63;;;;;;;;;;5019420;28;20040;-64
2024/01/05 10:03:56;;;;;;;13.32;12.73;;;;;;;;;;5032783;28;20402;-63
2024/01/05 10:06:22;;;;;;;12.82;12.23;;;;;;;;;;5034599;28;20124;-64
2024/01/05 10:08:50;;;;;;;12.55;11.95;;;;;;;;;;5039223;28;20508;-65
2024/01/05 10:11:26;;;;;;;12.68;12.07;;;;;;;;;;5029164;28;20037;-62
2024/01/05 10:13:57;;;;;;;12.35;11.75;;;;;;;;;;5040366;28;20022;-62
2024/01/05 10:16:26;;;;;;;12.25;11.65;;;;;;;;;;5030523;28;20396;-64
2024/01/05 10:18:52;;;;;;;12.43;11.82;;;;;;;;;;5038621;28;20179;-62
2024/01/05 10:21:18;;;;;;;12.35;11.75;;;;;;;;;;5023116;28;20454;-64
2024/01/05 10:23:44;;;;;;;12.65;12.05;;;;;;;;;;5036669;28;20093;-63
2024/01/05 10:26:16;;;;;;;12.80;12.20;;;;;;;;;;5027713;28;20022;-63
2024/01/05 10:28:42;;;;;;;14.07;13.38;;;;;;;;;;5025383;28;20501;-64
2024/01/05 10:31:14;;;;;;;12.55;11.95;;;;;;;;;;5028845;28;20025;-64
2024/01/05 10:33:49;;;;;;;12.48;11.88;;;;;;;;;;5032678;28;20021;-65
2024/01/05 10:36:17;;;;;;;12.82;12.23;;;;;;;;;;5025614;28;20071;-62
2024/01/05 10:38:44;;;;;;;12.40;11.80;;;;;;;;;;5029682;28;20084;-64
2024/01/05 10:41:09;;;;;;;12.38;11.77;;;;;;;;;;5031416;28;20112;-64
2024/01/05 10:43:35;;;;;;;12.30;11.70;;;;;;;;;;5032655;28;20166;-64
2024/01/05 10:46:01;;;;;;;12.80;12.20;;;;;;;;;;5027389;28;20049;-64
2024/01/05 10:48:27;;;;;;;11.88;11.35;;;;;;;;;;5025931;28;20109;-63
2024/01/05 10:50:54;;;;;;;13.23;12.52;;;;;;;;;;5026744;28;20097;-63
2024/01/05 10:53:19;;;;;;;12.00;11.40;;;;;;;;;;5033965;28;20033;-65
2024/01/05 10:55:45;;;;;;;12.80;12.20;;;;;;;;;;5024143;28;20029;-64
2024/01/05 10:58:11;;;;;;;13.00;12.38;;;;;;;;;;5031859;28;20512;-63
2024/01/05 11:00:36;;;;;;;12.25;11.65;;;;;;;;;;5032474;28;20017;-62
2024/01/05 11:03:12;;;;;;;12.60;12.00;;;;;;;;;;5030038;28;20084;-64
2024/01/05 11:05:39;;;;;;;12.82;12.23;;;;;;;;;;5028444;28;20030;-64
2024/01/05 11:08:05;;;;;;;12.90;12.30;;;;;;;;;;5029157;28;20045;-64
2024/01/05 11:10:33;;;;;;;12.20;11.60;;;;;;;;;;5027695;28;20026;-65
2024/01/05 11:13:18;;;;;;;12.18;11.57;;;;;;;;;;5034233;28;20083;-63
2024/01/05 11:16:02;;;;;;;12.50;11.90;;;;;;;;;;5033486;28;20030;-63
2024/01/05 11:18:36;;;;;;;12.25;11.65;;;;;;;;;;5026336;28;20413;-63
2024/01/05 11:21:02;;;;;;;;;;;;;;;;;;5030543;28;20031;-62
2024/01/05 11:23:28;;;;;;;12.75;12.15;;;;;;;;;;5023616;28;19996;-64
2024/01/05 11:25:55;;;;;;;12.25;11.65;;;;;;;;;;5031748;28;20140;-64
2024/01/05 11:28:36;;;;;;;12.80;12.20;;;;;;;;;;5029789;28;20033;-64
2024/01/05 11:31:02;;;;;;;13.52;12.82;;;;;;;;;;5026052;28;20021;-64
2024/01/05 11:33:44;;;;;;;12.55;11.95;;;;;;;;;;5023382;28;20034;-64
2024/01/05 11:36:09;;;;;;;13.88;13.18;;;;;;;;;;5026926;28;20388;-63
2024/01/05 11:38:40;;;;;;;12.43;11.82;;;;;;;;;;5027639;28;20026;-63
2024/01/05 11:41:18;;;;;;;12.05;11.48;;;;;;;;;;5025549;28;20095;-64
2024/01/05 11:43:44;;;;;;;12.52;11.93;;;;;;;;;;5027457;28;20056;-64
2024/01/05 11:46:09;;;;;;;13.10;12.50;;;;;;;;;;5029388;28;20060;-62
2024/01/05 11:48:34;;;;;;;12.23;11.63;;;;;;;;;;5027888;28;20021;-62
2024/01/05 11:51:03;;;;;;;12.30;11.70;;;;;;;;;;5033923;28;20025;-62
2024/01/05 11:53:29;;;;;;;12.35;11.75;;;;;;;;;;5020987;28;20040;-65
2024/01/05 11:55:58;;;;;;;11.75;11.25;;;;;;;;;;5023984;28;20329;-63
2024/01/05 11:58:35;;;;;;;12.45;11.85;;;;;;;;;;5043170;28;20453;-63
2024/01/05 12:01:02;;;;;;;12.30;11.70;;;;;;;;;;5027311;28;20112;-64
2024/01/05 12:03:27;;;;;;;12.25;11.65;;;;;;;;;;5031267;28;20021;-63
2024/01/05 12:05:57;;;;;;;12.45;11.85;;;;;;;;;;5032306;28;20017;-63
2024/01/05 12:08:22;;;;;;;12.10;11.50;;;;;;;;;;5031554;28;20026;-66
2024/01/05 12:10:53;;;;;;;12.90;12.30;;;;;;;;;;5032889;28;20640;-63
2024/01/05 12:13:26;;;;;;;12.45;11.85;;;;;;;;;;5030666;28;20392;-65
2024/01/05 12:16:02;;;;;;;12.43;11.83;;;;;;;;;;5033718;28;20059;-65
2024/01/05 12:18:30;;;;;;;11.90;11.30;;;;;;;;;;5029967;28;20297;-64
2024/01/05 12:20:58;;;;;;;12.25;11.65;;;;;;;;;;5027997;28;20037;-64
2024/01/05 12:23:24;;;;;;;12.38;11.77;;;;;;;;;;5031441;28;20013;-63
2024/01/05 12:26:05;;;;;;;12.35;11.75;;;;;;;;;;5029113;28;20021;-63
2024/01/05 12:28:33;;;;;;;12.68;12.07;;;;;;;;;;5028529;28;20033;-65
2024/01/05 12:30:59;;;;;;;12.30;11.70;;;;;;;;;;5026751;28;20052;-63
2024/01/05 12:33:25;;;;;;;12.13;11.52;;;;;;;;;;5018083;28;20508;-63
2024/01/05 12:35:52;;;;;;;12.23;11.63;;;;;;;;;;5032377;28;20043;-62
2024/01/05 12:38:24;;;;;;;12.05;11.45;;;;;;;;;;5034496;28;20430;-61
2024/01/05 12:40:50;;;;;;;12.73;12.13;;;;;;;;;;5030984;28;20033;-62
2024/01/05 12:43:16;;;;;;;13.23;12.52;;;;;;;;;;5034605;28;20404;-62
2024/01/05 12:45:42;;;;;;;12.70;12.10;;;;;;;;;;5027494;28;20040;-63
2024/01/05 12:48:10;;;;;;;12.05;11.45;;;;;;;;;;5033712;28;20025;-63
2024/01/05 12:50:36;;;;;;;12.80;12.20;;;;;;;;;;5021166;28;20065;-63
2024/01/05 12:53:01;;;;;;;12.30;11.70;;;;;;;;;;5033994;28;20452;-64
2024/01/05 12:55:30;;;;;;;11.60;11.10;;;;;;;;;;5022022;28;20014;-63
2024/01/05 12:58:02;;;;;;;11.50;11.00;;;;;;;;;;5030067;28;20021;-61
2024/01/05 13:00:28;;;;;;;12.00;11.40;;;;;;;;;;5016490;28;20080;-61
2024/01/05 13:02:53;;;;;;;11.55;11.05;;;;;;;;;;5024300;28;20698;-63
2024/01/05 13:05:29;;;;;;;13.77;13.07;;;;;;;;;;5027040;28;20038;-63
2024/01/05 13:07:54;;;;;;;12.13;11.52;;;;;;;;;;5022488;28;20128;-62
2024/01/05 13:10:22;;;;;;;12.10;11.50;;;;;;;;;;5027120;28;20092;-62
2024/01/05 13:12:48;;;;;;;12.35;11.75;;;;;;;;;;5028292;28;20360;-61
2024/01/05 13:15:13;;;;;;;12.30;11.70;;;;;;;;;;5025092;28;20029;-61
2024/01/05 13:17:43;;;;;;;12.18;11.57;;;;;;;;;;5028074;28;20065;-61
2024/01/05 13:20:09;;;;;;;12.40;11.80;;;;;;;;;;5030907;28;20469;-60
2024/01/05 13:22:34;;;;;;;13.25;12.55;;;;;;;;;;5029491;28;20017;-61
2024/01/05 13:24:59;;;;;;;14.90;14.10;;;;;;;;;;5020550;28;20041;-62
2024/01/05 13:27:24;;;;;;;14.10;13.30;;;;;;;;;;5018461;28;20075;-61
2024/01/05 13:29:51;;;;;;;13.02;12.32;;;;;;;;;;5020434;28;20101;-61
2024/01/05 13:32:17;;;;;;;12.55;11.95;;;;;;;;;;5027934;28;20473;-62
2024/01/05 13:34:42;;;;;;;12.02;11.43;;;;;;;;;;5028548;28;20025;-61
2024/01/05 13:37:07;;;;;;;12.32;11.73;;;;;;;;;;5025604;28;20121;-61
2024/01/05 13:39:38;;;;;;;12.48;11.88;;;;;;;;;;5022303;28;20097;-61
2024/01/05 13:42:04;;;;;;;12.98;12.27;;;;;;;;;;5026086;28;20385;-61
2024/01/05 13:44:29;;;;;;;13.52;12.82;;;;;;;;;;5017989;28;20025;-65
2024/01/05 13:46:55;;;;;;;11.85;11.25;;;;;;;;;;5024194;28;20126;-64
2024/01/05 13:49:20;;;;;;;11.90;11.30;;;;;;;;;;5026641;28;20021;-64
2024/01/05 13:51:45;;;;;;;12.50;11.90;;;;;;;;;;5028789;28;20052;-65
2024/01/05 13:54:11;;;;;;;11.80;11.20;;;;;;;;;;5020711;28;20025;-64
2024/01/05 13:56:36;;;;;;;12.10;11.50;;;;;;;;;;5037109;28;20029;-65
2024/01/05 13:59:02;;;;;;;12.25;11.65;;;;;;;;;;5023361;28;20032;-65
2024/01/05 14:01:28;;;;;;;11.85;11.25;;;;;;;;;;5025772;28;20029;-64
2024/01/05 14:03:53;;;;;;;12.05;11.45;;;;;;;;;;5025442;28;20029;-64
2024/01/05 14:06:18;;;;;;;11.40;10.90;;;;;;;;;;5024684;28;20021;-64
2024/01/05 14:08:43;;;;;;;11.68;11.10;;;;;;;;;;5031781;28;20024;-63
2024/01/05 14:11:12;;;;;;;12.95;12.25;;;;;;;;;;5024079;28;20033;-66
2024/01/05 14:13:38;;;;;;;11.65;11.13;;;;;;;;;;5016836;28;20092;-66